Time;durP1;ratioP1;P1;durP2;ratioP2;P2;SDS_P1;SDS_P2;PMS_P1;PMS_P2;Temp;Humidity;BMP_temperature;BMP_pressure;BME280_temperature;BME280_humidity;BME280_pressure;Samples;Min_cycle;Max_cycle;Signal;HPM_P1;HPM_P2
2023/06/01 00:02:06;;;;;;;9.68;4.78;;;18.40;93.70;;;;;;5019690;28;20197;-59
2023/06/01 00:04:32;;;;;;;8.18;3.28;;;18.30;93.90;;;;;;5018266;28;20870;-58
2023/06/01 00:07:01;;;;;;;10.70;4.18;;;18.30;93.90;;;;;;5018380;28;20312;-58
2023/06/01 00:09:27;;;;;;;19.65;4.40;;;18.30;94.10;;;;;;5021284;28;20045;-58
2023/06/01 00:11:53;;;;;;;9.25;4.30;;;18.30;94.10;;;;;;5018217;28;20052;-58
2023/06/01 00:14:18;;;;;;;7.63;2.95;;;18.20;94.10;;;;;;5019130;28;20526;-58
2023/06/01 00:16:45;;;;;;;7.75;3.40;;;18.20;94.30;;;;;;5014698;28;20100;-58
2023/06/01 00:19:11;;;;;;;8.27;3.45;;;18.20;94.20;;;;;;5015636;28;20543;-57
2023/06/01 00:21:37;;;;;;;6.68;3.38;;;18.20;94.40;;;;;;5019223;28;20144;-58
2023/06/01 00:24:02;;;;;;;8.50;4.93;;;18.10;94.40;;;;;;5020712;28;20046;-58
2023/06/01 00:26:31;;;;;;;6.95;4.10;;;18.10;94.50;;;;;;5021149;28;20528;-60
2023/06/01 00:28:58;;;;;;;8.50;3.95;;;18.10;94.60;;;;;;5012394;28;20164;-58
2023/06/01 00:31:24;;;;;;;7.85;3.35;;;18.00;94.60;;;;;;5018539;28;20042;-59
2023/06/01 00:33:50;;;;;;;7.47;4.13;;;18.00;94.70;;;;;;5017396;28;20054;-58
2023/06/01 00:36:16;;;;;;;9.55;4.22;;;18.00;94.80;;;;;;5015222;28;20042;-58
2023/06/01 00:38:42;;;;;;;9.55;3.80;;;18.00;94.90;;;;;;5018143;28;20046;-58
2023/06/01 00:41:07;;;;;;;9.95;4.28;;;18.00;95.00;;;;;;5017167;28;20450;-58
2023/06/01 00:43:33;;;;;;;13.65;5.93;;;17.90;95.00;;;;;;5019742;28;20428;-58
2023/06/01 00:45:59;;;;;;;7.22;4.15;;;17.90;95.10;;;;;;5014235;28;20054;-58
2023/06/01 00:48:25;;;;;;;7.32;4.40;;;17.90;95.20;;;;;;5019360;28;20108;-58
2023/06/01 00:50:51;;;;;;;9.18;4.65;;;17.90;95.20;;;;;;5018273;28;20189;-58
2023/06/01 00:53:19;;;;;;;8.00;4.40;;;17.80;95.30;;;;;;5018206;28;20736;-58
2023/06/01 00:55:45;;;;;;;7.45;3.33;;;17.80;95.40;;;;;;5013631;28;22063;-58
2023/06/01 00:58:15;;;;;;;12.18;3.97;;;17.80;95.40;;;;;;5017973;28;20845;-58
2023/06/01 01:00:41;;;;;;;9.05;3.95;;;17.80;95.60;;;;;;5021011;28;21530;-59
2023/06/01 01:03:08;;;;;;;8.30;4.65;;;17.70;95.60;;;;;;5019698;28;20046;-58
2023/06/01 01:05:36;;;;;;;10.35;5.18;;;17.70;95.80;;;;;;5012857;28;20050;-58
2023/06/01 01:08:21;;;;;;;10.90;4.50;;;17.60;96.10;;;;;;5049879;28;20436;-58
2023/06/01 01:10:52;;;;;;;10.73;4.43;;;17.70;96.10;;;;;;5022525;28;20072;-58
2023/06/01 01:13:28;;;;;;;8.07;4.45;;;17.70;96.10;;;;;;5013145;28;20050;-58
2023/06/01 01:16:10;;;;;;;9.07;4.03;;;17.60;96.10;;;;;;5018512;28;20045;-58
2023/06/01 01:19:04;;;;;;;7.97;4.22;;;17.70;96.20;;;;;;5016299;28;20045;-58
2023/06/01 01:21:37;;;;;;;10.38;4.18;;;17.60;96.20;;;;;;5022077;28;20052;-58
2023/06/01 01:24:28;;;;;;;9.57;4.57;;;17.60;96.20;;;;;;5022974;28;20119;-59
2023/06/01 01:27:26;;;;;;;10.65;6.45;;;17.60;96.40;;;;;;5013861;28;20120;-59
2023/06/01 01:29:54;;;;;;;7.05;4.35;;;17.50;96.40;;;;;;5018238;28;20041;-58
2023/06/01 01:32:23;;;;;;;9.18;4.55;;;17.50;96.40;;;;;;5019989;28;20416;-58
2023/06/01 01:34:51;;;;;;;13.73;5.18;;;17.50;96.50;;;;;;5016943;28;20101;-58
2023/06/01 01:37:16;;;;;;;10.40;4.38;;;17.50;96.60;;;;;;5022872;28;20048;-58
2023/06/01 01:39:42;;;;;;;12.43;5.30;;;17.50;96.70;;;;;;5021193;28;20045;-58
2023/06/01 01:42:08;;;;;;;7.80;4.22;;;17.50;96.80;;;;;;5019932;28;20033;-58
2023/06/01 01:44:34;;;;;;;7.88;4.60;;;17.40;96.80;;;;;;5018324;28;21267;-58
2023/06/01 01:47:15;;;;;;;10.63;4.90;;;17.40;96.80;;;;;;5020262;28;20580;-58
2023/06/01 01:49:52;;;;;;;7.97;3.97;;;17.40;96.90;;;;;;5020077;28;20516;-58
2023/06/01 01:52:22;;;;;;;11.27;5.05;;;17.30;97.00;;;;;;5019493;28;20901;-58
2023/06/01 01:54:50;;;;;;;12.13;5.68;;;17.30;97.10;;;;;;5018848;28;20835;-58
2023/06/01 01:57:18;;;;;;;12.00;5.28;;;17.20;97.20;;;;;;5017311;28;20042;-58
2023/06/01 01:59:46;;;;;;;14.07;5.88;;;17.20;97.40;;;;;;5018506;28;20049;-58
2023/06/01 02:02:11;;;;;;;12.20;5.07;;;17.10;97.60;;;;;;5014023;28;20132;-58
2023/06/01 02:04:41;;;;;;;10.02;5.28;;;17.10;97.70;;;;;;5018435;28;20470;-58
2023/06/01 02:07:07;;;;;;;17.35;6.50;;;17.10;97.80;;;;;;5019723;28;20053;-58
2023/06/01 02:09:33;;;;;;;12.15;7.13;;;17.00;97.90;;;;;;4997809;28;20637;-58
2023/06/01 02:12:00;;;;;;;9.75;5.65;;;17.00;98.20;;;;;;5019446;28;20120;-58
2023/06/01 02:14:25;;;;;;;10.10;6.05;;;17.00;98.30;;;;;;5017371;28;20049;-58
2023/06/01 02:16:53;;;;;;;14.90;6.57;;;17.00;98.40;;;;;;5017420;28;20041;-58
2023/06/01 02:19:19;;;;;;;9.48;5.15;;;16.90;98.50;;;;;;5019804;28;20057;-58
2023/06/01 02:21:45;;;;;;;12.65;6.63;;;16.90;98.70;;;;;;5017373;28;20502;-59
2023/06/01 02:24:11;;;;;;;12.52;6.07;;;16.90;98.70;;;;;;5018070;28;20060;-58
2023/06/01 02:26:36;;;;;;;10.52;6.60;;;16.80;98.90;;;;;;5015436;28;20124;-58
2023/06/01 02:29:04;;;;;;;12.73;6.30;;;16.80;99.10;;;;;;5017594;28;20488;-58
2023/06/01 02:31:31;;;;;;;10.05;6.22;;;16.80;99.10;;;;;;5020174;28;20069;-58
2023/06/01 02:33:57;;;;;;;11.90;6.50;;;16.70;99.40;;;;;;5014734;28;20107;-58
2023/06/01 02:36:24;;;;;;;16.10;7.53;;;16.70;99.30;;;;;;5015515;28;20042;-59
2023/06/01 02:38:50;;;;;;;10.43;5.63;;;16.70;99.60;;;;;;5020339;28;20063;-59
2023/06/01 02:41:15;;;;;;;14.18;7.38;;;16.70;99.90;;;;;;5021383;28;20045;-59
2023/06/01 02:43:41;;;;;;;16.73;8.45;;;16.70;99.90;;;;;;5017280;28;20173;-58
2023/06/01 02:46:07;;;;;;;15.05;8.25;;;16.60;99.90;;;;;;5020031;28;20090;-58
2023/06/01 02:48:33;;;;;;;11.13;7.68;;;16.60;99.90;;;;;;5023630;28;20046;-58
2023/06/01 02:50:58;;;;;;;20.08;8.27;;;16.60;99.90;;;;;;5020114;28;20045;-58
2023/06/01 02:53:27;;;;;;;19.38;7.55;;;16.60;99.90;;;;;;5010353;28;20054;-58
2023/06/01 02:55:53;;;;;;;12.38;6.80;;;16.60;99.90;;;;;;5019639;28;20041;-58
2023/06/01 02:58:18;;;;;;;15.63;7.78;;;16.60;99.90;;;;;;5018495;28;20045;-58
2023/06/01 03:00:45;;;;;;;12.88;7.65;;;16.50;99.90;;;;;;5018057;28;20060;-58
2023/06/01 03:03:11;;;;;;;15.82;6.80;;;16.50;99.90;;;;;;5015899;28;20167;-59
2023/06/01 03:05:38;;;;;;;17.02;8.73;;;16.50;99.90;;;;;;5019347;28;20443;-58
2023/06/01 03:08:06;;;;;;;12.90;7.72;;;16.40;99.90;;;;;;5016731;28;20460;-58
2023/06/01 03:10:32;;;;;;;15.15;9.10;;;16.50;99.90;;;;;;5018297;28;20582;-58
2023/06/01 03:12:57;;;;;;;18.10;8.98;;;16.40;99.90;;;;;;5013608;28;20046;-58
2023/06/01 03:15:23;;;;;;;13.88;9.07;;;16.40;99.90;;;;;;5013207;28;20096;-58
2023/06/01 03:17:49;;;;;;;17.17;8.60;;;16.30;99.90;;;;;;5018857;28;20464;-58
2023/06/01 03:20:15;;;;;;;16.67;8.00;;;16.30;99.90;;;;;;5018848;28;20107;-58
2023/06/01 03:22:45;;;;;;;14.90;8.73;;;16.20;99.90;;;;;;5016756;28;20543;-58
2023/06/01 03:25:12;;;;;;;14.95;8.32;;;16.30;99.90;;;;;;5019881;28;20120;-57
2023/06/01 03:27:41;;;;;;;15.15;8.63;;;16.20;99.90;;;;;;5019217;28;20074;-58
2023/06/01 03:30:11;;;;;;;15.85;8.95;;;16.20;99.90;;;;;;5018905;28;20044;-58
2023/06/01 03:32:37;;;;;;;12.57;8.57;;;16.20;99.90;;;;;;5017548;28;20582;-58
2023/06/01 03:35:06;;;;;;;14.85;7.22;;;16.10;99.90;;;;;;5018001;28;20054;-58
2023/06/01 03:37:32;;;;;;;15.25;8.40;;;16.20;99.90;;;;;;5001254;28;20038;-57
2023/06/01 03:39:58;;;;;;;16.70;9.55;;;16.10;99.90;;;;;;5019909;28;22599;-58
2023/06/01 03:42:24;;;;;;;19.48;10.70;;;16.20;99.90;;;;;;5020810;28;20046;-58
2023/06/01 03:44:50;;;;;;;18.48;7.65;;;16.10;99.90;;;;;;5021610;28;20038;-58
2023/06/01 03:47:15;;;;;;;15.52;8.25;;;16.10;99.90;;;;;;5021149;28;20611;-58
2023/06/01 03:49:41;;;;;;;19.08;8.90;;;16.00;99.90;;;;;;5021850;28;20523;-58
2023/06/01 03:52:07;;;;;;;19.52;9.45;;;16.00;99.90;;;;;;5018806;28;20129;-58
2023/06/01 03:54:33;;;;;;;16.23;8.95;;;16.00;99.90;;;;;;5022994;28;20050;-57
2023/06/01 03:56:59;;;;;;;18.38;7.85;;;16.00;99.90;;;;;;5020429;28;20049;-58
2023/06/01 03:59:25;;;;;;;19.80;8.82;;;15.90;99.90;;;;;;5013469;28;20056;-58
2023/06/01 04:01:51;;;;;;;16.77;9.82;;;15.90;99.90;;;;;;5009475;28;20084;-59
2023/06/01 04:04:20;;;;;;;20.08;8.73;;;15.90;99.90;;;;;;5015072;28;20101;-58
2023/06/01 04:06:46;;;;;;;19.38;9.80;;;16.00;99.90;;;;;;5008012;28;20093;-58
2023/06/01 04:09:11;;;;;;;20.15;10.05;;;15.90;99.90;;;;;;5020862;28;20623;-58
2023/06/01 04:11:39;;;;;;;13.73;7.20;;;15.90;99.90;;;;;;5021886;28;20551;-58
2023/06/01 04:14:05;;;;;;;17.63;10.07;;;15.90;99.90;;;;;;5019013;28;20042;-58
2023/06/01 04:16:31;;;;;;;19.88;9.95;;;15.80;99.90;;;;;;5019609;28;20495;-57
2023/06/01 04:18:57;;;;;;;17.80;8.75;;;15.80;99.90;;;;;;5022991;28;20396;-58
2023/06/01 04:21:23;;;;;;;19.02;9.73;;;15.80;99.90;;;;;;5023953;28;20459;-58
2023/06/01 04:23:50;;;;;;;20.00;11.30;;;15.80;99.90;;;;;;5017733;28;20065;-58
2023/06/01 04:26:17;;;;;;;19.90;10.75;;;15.80;99.90;;;;;;5014530;28;20112;-58
2023/06/01 04:28:45;;;;;;;22.23;10.50;;;15.80;99.90;;;;;;5014588;28;20038;-58
2023/06/01 04:31:18;;;;;;;18.95;8.77;;;15.80;99.90;;;;;;5012123;28;21801;-58
2023/06/01 04:33:52;;;;;;;19.33;10.48;;;15.80;99.90;;;;;;5022097;28;20676;-58
2023/06/01 04:36:21;;;;;;;18.77;11.45;;;15.80;99.90;;;;;;5019461;28;20052;-58
2023/06/01 04:38:51;;;;;;;21.45;10.68;;;15.80;99.90;;;;;;5019492;28;20064;-58
2023/06/01 04:41:17;;;;;;;21.83;10.25;;;15.80;99.90;;;;;;5021639;28;20195;-58
2023/06/01 04:43:43;;;;;;;16.00;9.82;;;15.70;99.90;;;;;;5020614;28;20609;-58
2023/06/01 04:46:08;;;;;;;19.25;10.13;;;15.70;99.90;;;;;;5014033;28;20112;-58
2023/06/01 04:48:34;;;;;;;19.00;10.32;;;15.70;99.90;;;;;;5016491;28;20627;-58
2023/06/01 04:51:00;;;;;;;20.08;10.63;;;15.70;99.90;;;;;;5019461;28;20711;-58
2023/06/01 04:53:26;;;;;;;20.40;11.63;;;15.70;99.90;;;;;;5021949;28;20049;-58
2023/06/01 04:55:53;;;;;;;17.95;10.57;;;15.80;99.90;;;;;;5012966;28;20038;-58
2023/06/01 04:58:19;;;;;;;24.83;11.48;;;15.70;99.90;;;;;;5016164;28;20042;-58
2023/06/01 05:00:46;;;;;;;23.55;10.98;;;15.80;99.90;;;;;;5009505;28;20050;-60
2023/06/01 05:03:12;;;;;;;20.85;11.73;;;15.80;99.90;;;;;;5016816;28;20081;-59
2023/06/01 05:05:37;;;;;;;26.98;12.30;;;15.80;99.90;;;;;;5018416;28;20044;-58
2023/06/01 05:08:03;;;;;;;25.17;12.35;;;15.70;99.90;;;;;;5021779;28;20420;-58
2023/06/01 05:10:29;;;;;;;21.45;12.18;;;15.80;99.90;;;;;;5017876;28;20120;-58
2023/06/01 05:12:55;;;;;;;20.95;10.80;;;15.80;99.90;;;;;;5021098;28;20050;-58
2023/06/01 05:15:21;;;;;;;21.52;9.63;;;15.70;99.90;;;;;;5019432;28;20049;-58
2023/06/01 05:17:47;;;;;;;21.92;8.52;;;15.70;99.90;;;;;;5022548;28;20046;-57
2023/06/01 05:20:13;;;;;;;25.58;13.63;;;15.70;99.90;;;;;;5021349;28;20741;-58
2023/06/01 05:22:39;;;;;;;26.60;12.20;;;15.80;99.90;;;;;;5017022;28;20163;-58
2023/06/01 05:25:05;;;;;;;27.20;13.25;;;15.70;99.90;;;;;;5013694;28;20042;-58
2023/06/01 05:27:31;;;;;;;20.05;11.38;;;15.70;99.90;;;;;;5013697;28;20045;-58
2023/06/01 05:29:57;;;;;;;27.23;11.60;;;15.80;99.90;;;;;;5016981;28;20073;-58
2023/06/01 05:32:23;;;;;;;18.10;10.65;;;15.80;99.90;;;;;;5020032;28;20619;-58
2023/06/01 05:34:48;;;;;;;19.00;9.73;;;15.70;99.90;;;;;;5018726;28;20042;-58
2023/06/01 05:37:14;;;;;;;27.77;13.52;;;15.80;99.90;;;;;;5020564;28;20050;-58
2023/06/01 05:39:40;;;;;;;19.92;10.98;;;15.80;99.90;;;;;;5014334;28;20054;-59
2023/06/01 05:42:06;;;;;;;24.63;11.25;;;15.80;99.90;;;;;;5012516;28;20037;-58
2023/06/01 05:44:32;;;;;;;19.17;11.07;;;15.80;99.90;;;;;;5021865;28;20611;-58
2023/06/01 05:46:58;;;;;;;19.48;10.70;;;15.80;99.90;;;;;;5021303;28;20263;-58
2023/06/01 05:49:23;;;;;;;22.58;12.43;;;15.80;99.90;;;;;;5018932;28;20515;-58
2023/06/01 05:51:49;;;;;;;25.48;13.02;;;15.80;99.90;;;;;;5018766;28;20049;-59
2023/06/01 05:54:15;;;;;;;20.67;10.05;;;15.90;99.90;;;;;;5018652;28;20065;-58
2023/06/01 05:56:41;;;;;;;17.38;11.15;;;15.90;99.90;;;;;;5021134;28;20468;-58
2023/06/01 05:59:06;;;;;;;24.98;14.00;;;15.90;99.90;;;;;;5019248;28;20049;-57
2023/06/01 06:01:32;;;;;;;36.45;14.63;;;15.90;99.90;;;;;;5050714;28;20512;-58
2023/06/01 06:03:58;;;;;;;21.98;11.55;;;15.90;99.90;;;;;;5021078;28;20046;-57
2023/06/01 06:06:25;;;;;;;20.10;10.52;;;15.90;99.90;;;;;;5012869;28;20093;-58
2023/06/01 06:08:51;;;;;;;18.00;11.00;;;16.00;99.90;;;;;;5020156;28;20750;-58
2023/06/01 06:11:17;;;;;;;19.15;12.63;;;16.00;99.90;;;;;;5016284;28;20124;-58
2023/06/01 06:13:43;;;;;;;19.75;10.02;;;16.00;99.90;;;;;;5017264;28;20152;-58
2023/06/01 06:16:08;;;;;;;29.10;10.43;;;16.10;99.90;;;;;;5014980;28;20095;-58
2023/06/01 06:18:35;;;;;;;19.02;11.13;;;16.10;99.90;;;;;;5017550;28;20042;-59
2023/06/01 06:21:01;;;;;;;25.33;12.48;;;16.10;99.90;;;;;;5016323;28;20038;-58
2023/06/01 06:23:27;;;;;;;22.98;10.55;;;16.20;99.90;;;;;;5020794;28;20041;-58
2023/06/01 06:25:53;;;;;;;24.85;11.77;;;16.20;99.90;;;;;;5013821;28;20143;-58
2023/06/01 06:28:18;;;;;;;18.88;8.70;;;16.20;99.90;;;;;;5020227;28;20075;-58
2023/06/01 06:30:44;;;;;;;18.52;11.50;;;16.30;99.90;;;;;;5014331;28;20125;-58
2023/06/01 06:33:11;;;;;;;24.45;13.43;;;16.30;99.90;;;;;;5019023;28;20049;-60
2023/06/01 06:35:38;;;;;;;21.48;10.93;;;16.30;99.90;;;;;;5021730;28;20561;-58
2023/06/01 06:38:04;;;;;;;22.52;11.27;;;16.30;99.90;;;;;;5020304;28;21289;-61
2023/06/01 06:40:30;;;;;;;23.95;10.52;;;16.40;99.90;;;;;;5019550;28;20044;-59
2023/06/01 06:42:56;;;;;;;18.55;10.13;;;16.40;99.90;;;;;;5015912;28;20034;-58
2023/06/01 06:45:21;;;;;;;23.23;11.18;;;16.40;99.90;;;;;;5016399;28;20052;-57
2023/06/01 06:47:47;;;;;;;20.30;10.32;;;16.40;99.90;;;;;;5014397;28;20169;-58
2023/06/01 06:50:13;;;;;;;25.95;11.88;;;16.50;99.90;;;;;;5020923;28;20041;-57
2023/06/01 06:52:39;;;;;;;19.10;10.63;;;16.50;99.90;;;;;;5013175;28;20041;-58
2023/06/01 06:55:05;;;;;;;19.55;10.38;;;16.50;99.90;;;;;;5016747;28;20046;-56
2023/06/01 06:57:31;;;;;;;25.05;9.43;;;16.50;99.90;;;;;;5017769;28;20038;-58
2023/06/01 06:59:57;;;;;;;24.45;11.45;;;16.60;99.90;;;;;;5018960;28;20045;-58
2023/06/01 07:02:23;;;;;;;18.73;10.85;;;16.60;99.90;;;;;;5018693;28;20049;-59
2023/06/01 07:04:48;;;;;;;17.00;10.88;;;16.70;99.90;;;;;;5023346;28;20045;-58
2023/06/01 07:07:14;;;;;;;22.73;11.07;;;16.70;99.90;;;;;;5022491;28;20148;-59
2023/06/01 07:09:40;;;;;;;24.60;10.63;;;16.70;99.90;;;;;;5020206;28;20046;-58
2023/06/01 07:12:07;;;;;;;22.67;9.85;;;16.80;99.90;;;;;;5024235;28;20080;-58
2023/06/01 07:14:33;;;;;;;27.90;9.68;;;16.80;99.90;;;;;;5022585;28;20049;-58
2023/06/01 07:16:58;;;;;;;32.65;9.55;;;16.90;99.90;;;;;;5021760;28;20076;-58
2023/06/01 07:19:24;;;;;;;16.88;8.25;;;16.90;99.90;;;;;;5023850;28;20156;-57
2023/06/01 07:21:50;;;;;;;26.45;10.50;;;17.00;99.90;;;;;;5022878;28;20064;-58
2023/06/01 07:24:19;;;;;;;16.58;8.50;;;17.00;99.90;;;;;;5023962;28;20132;-57
2023/06/01 07:26:44;;;;;;;22.23;9.07;;;17.10;99.90;;;;;;5023902;28;20495;-57
2023/06/01 07:29:11;;;;;;;16.30;9.50;;;17.10;99.90;;;;;;5022980;28;20068;-57
2023/06/01 07:31:38;;;;;;;26.27;10.00;;;17.10;99.90;;;;;;5022099;28;20041;-57
2023/06/01 07:34:04;;;;;;;18.25;9.13;;;17.20;99.90;;;;;;5022684;28;20046;-57
2023/06/01 07:36:36;;;;;;;16.60;8.25;;;17.30;99.90;;;;;;5022850;28;20042;-57
2023/06/01 07:39:05;;;;;;;20.98;8.52;;;17.30;99.90;;;;;;5023762;28;20050;-58
2023/06/01 07:41:35;;;;;;;13.25;7.28;;;17.30;99.90;;;;;;5055952;28;20133;-57
2023/06/01 07:44:00;;;;;;;24.95;7.22;;;17.40;99.90;;;;;;5024047;28;20041;-58
2023/06/01 07:46:26;;;;;;;19.13;8.13;;;17.40;99.90;;;;;;5023050;28;20575;-58
2023/06/01 07:48:52;;;;;;;12.57;7.68;;;17.50;99.90;;;;;;5021992;28;20045;-57
2023/06/01 07:51:17;;;;;;;18.40;7.68;;;17.50;99.90;;;;;;5022489;28;20099;-57
2023/06/01 07:53:43;;;;;;;15.80;7.85;;;17.60;99.90;;;;;;5022853;28;20111;-57
2023/06/01 07:56:10;;;;;;;20.30;8.50;;;17.60;99.90;;;;;;5024635;28;20539;-58
2023/06/01 07:58:36;;;;;;;18.17;7.82;;;17.60;99.90;;;;;;5023606;28;20041;-57
2023/06/01 08:01:03;;;;;;;14.20;7.20;;;17.70;99.90;;;;;;5019547;28;20125;-57
2023/06/01 08:03:28;;;;;;;15.68;8.93;;;17.70;99.90;;;;;;5019358;28;20133;-57
2023/06/01 08:05:57;;;;;;;13.82;6.50;;;17.70;99.90;;;;;;5020229;28;20328;-58
2023/06/01 08:08:23;;;;;;;14.40;7.82;;;17.80;99.90;;;;;;5021533;28;20085;-57
2023/06/01 08:10:49;;;;;;;22.45;8.60;;;17.80;99.90;;;;;;5020728;28;20046;-58
2023/06/01 08:13:15;;;;;;;11.13;7.32;;;17.80;99.90;;;;;;5022682;28;20076;-58
2023/06/01 08:15:42;;;;;;;17.92;8.32;;;17.80;99.90;;;;;;5021245;28;20068;-57
2023/06/01 08:18:08;;;;;;;13.98;7.82;;;17.90;99.90;;;;;;5022736;28;20802;-57
2023/06/01 08:20:35;;;;;;;15.10;8.15;;;17.90;99.90;;;;;;5023113;28;20034;-58
2023/06/01 08:23:02;;;;;;;18.85;7.88;;;18.00;99.90;;;;;;5024174;28;20049;-57
2023/06/01 08:25:28;;;;;;;16.10;6.85;;;18.00;99.90;;;;;;5020427;28;20105;-57
2023/06/01 08:27:54;;;;;;;17.17;5.55;;;18.00;99.90;;;;;;5023175;28;20073;-57
2023/06/01 08:30:20;;;;;;;16.13;7.80;;;18.10;99.90;;;;;;5023012;28;20070;-57
2023/06/01 08:32:46;;;;;;;14.45;6.63;;;18.10;99.90;;;;;;5026772;28;20516;-59
2023/06/01 08:35:11;;;;;;;21.23;8.65;;;18.10;99.90;;;;;;5022201;28;20572;-59
2023/06/01 08:37:37;;;;;;;19.08;7.93;;;18.20;99.90;;;;;;5024682;28;20404;-57
2023/06/01 08:40:08;;;;;;;11.15;7.10;;;18.20;99.90;;;;;;5022237;28;20110;-58
2023/06/01 08:43:02;;;;;;;17.02;7.75;;;18.20;99.90;;;;;;5022751;28;20038;-57
2023/06/01 08:45:29;;;;;;;17.92;6.55;;;18.30;99.90;;;;;;5025258;28;20073;-58
2023/06/01 08:47:55;;;;;;;11.23;6.97;;;18.30;99.90;;;;;;5026274;28;20038;-57
2023/06/01 08:50:21;;;;;;;12.20;7.85;;;18.30;99.90;;;;;;5026176;28;20580;-57
2023/06/01 08:52:49;;;;;;;12.32;7.22;;;18.40;99.90;;;;;;5027792;28;20041;-57
2023/06/01 08:55:15;;;;;;;15.65;7.50;;;18.40;99.90;;;;;;5024347;28;20060;-58
2023/06/01 08:57:41;;;;;;;15.07;8.23;;;18.50;99.90;;;;;;5024867;28;20911;-57
2023/06/01 09:00:13;;;;;;;17.42;7.82;;;18.50;99.90;;;;;;5024185;28;20050;-57
2023/06/01 09:02:40;;;;;;;;;;;18.60;99.90;;;;;;5025510;28;20194;-58
2023/06/01 09:05:06;;;;;;;15.00;6.28;;;18.60;99.90;;;;;;5024139;28;20444;-58
2023/06/01 09:07:32;;;;;;;13.80;8.45;;;18.60;99.90;;;;;;5025675;28;20065;-58
2023/06/01 09:09:58;;;;;;;12.38;7.78;;;18.60;99.90;;;;;;5024921;28;20042;-58
2023/06/01 09:12:28;;;;;;;19.15;7.68;;;18.70;99.90;;;;;;5024255;28;20507;-57
2023/06/01 09:15:17;;;;;;;25.85;10.35;;;18.70;99.90;;;;;;5023181;28;20133;-58
2023/06/01 09:17:49;;;;;;;20.42;9.23;;;18.80;99.90;;;;;;5026616;28;20089;-57
2023/06/01 09:20:25;;;;;;;;;;;18.80;99.90;;;;;;5024545;28;21040;-57
2023/06/01 09:22:53;;;;;;;16.45;8.95;;;18.80;99.90;;;;;;5026233;28;19959;-58
2023/06/01 09:25:27;;;;;;;18.77;8.32;;;18.90;99.90;;;;;;5025885;28;20533;-57
2023/06/01 09:27:54;;;;;;;14.75;8.48;;;18.90;99.90;;;;;;5024775;28;20045;-58
2023/06/01 09:30:23;;;;;;;9.52;6.15;;;18.90;99.90;;;;;;5024674;28;20124;-58
2023/06/01 09:32:53;;;;;;;16.77;6.13;;;19.00;99.90;;;;;;5023458;28;20041;-57
2023/06/01 09:35:42;;;;;;;12.45;6.25;;;19.00;99.90;;;;;;5025020;28;20095;-57
2023/06/01 09:38:09;;;;;;;17.42;7.57;;;19.00;99.90;;;;;;5025146;28;20038;-58
2023/06/01 09:40:36;;;;;;;11.10;6.63;;;19.10;99.90;;;;;;5025414;28;20041;-57
2023/06/01 09:43:02;;;;;;;14.98;8.45;;;19.10;99.90;;;;;;5023696;28;20042;-58
2023/06/01 09:45:31;;;;;;;13.18;8.10;;;19.20;99.90;;;;;;5024807;28;20045;-60
2023/06/01 09:48:17;;;;;;;12.40;6.35;;;19.20;99.90;;;;;;5024539;28;20077;-57
2023/06/01 09:50:43;;;;;;;17.77;8.70;;;19.30;99.90;;;;;;5025674;28;20042;-57
2023/06/01 09:53:09;;;;;;;9.88;5.32;;;19.30;99.90;;;;;;5023996;28;20045;-58
2023/06/01 09:55:35;;;;;;;10.82;6.68;;;19.40;99.90;;;;;;5026736;28;20096;-57
2023/06/01 09:58:20;;;;;;;9.35;6.10;;;19.50;99.90;;;;;;5023731;28;20507;-58
2023/06/01 10:00:48;;;;;;;15.07;7.68;;;19.50;99.90;;;;;;5022641;28;20037;-58
2023/06/01 10:03:15;;;;;;;15.30;6.05;;;19.60;99.90;;;;;;5023145;28;20074;-58
2023/06/01 10:05:43;;;;;;;9.93;7.05;;;19.60;99.90;;;;;;5025815;28;20275;-58
2023/06/01 10:08:12;;;;;;;15.75;7.80;;;19.70;99.90;;;;;;5023987;28;20038;-57
2023/06/01 10:10:39;;;;;;;13.73;7.20;;;19.70;99.90;;;;;;5025840;28;20066;-58
2023/06/01 10:13:06;;;;;;;12.68;6.32;;;19.80;99.90;;;;;;5020704;28;20038;-57
2023/06/01 10:15:32;;;;;;;10.32;6.45;;;19.80;99.90;;;;;;5019634;28;20049;-58
2023/06/01 10:17:59;;;;;;;12.30;7.13;;;19.90;99.90;;;;;;5022926;28;20063;-58
2023/06/01 10:20:25;;;;;;;11.23;6.20;;;19.80;99.90;;;;;;5024678;28;20054;-58
2023/06/01 10:22:52;;;;;;;14.48;7.35;;;20.00;99.90;;;;;;5024474;28;20041;-57
2023/06/01 10:25:20;;;;;;;20.77;7.28;;;20.00;99.90;;;;;;5024881;28;20056;-59
2023/06/01 10:27:57;;;;;;;10.23;6.88;;;20.10;99.90;;;;;;5023863;28;20045;-58
2023/06/01 10:30:23;;;;;;;10.43;6.43;;;20.20;99.90;;;;;;5023296;28;20139;-58
2023/06/01 10:32:49;;;;;;;11.10;5.53;;;20.20;99.90;;;;;;5022744;28;20612;-58
2023/06/01 10:35:33;;;;;;;12.20;5.50;;;20.20;99.90;;;;;;5024565;28;20049;-59
2023/06/01 10:38:12;;;;;;;16.00;6.30;;;20.20;99.90;;;;;;5023994;28;20045;-58
2023/06/01 10:40:42;;;;;;;11.43;6.38;;;20.30;99.90;;;;;;5023245;28;20158;-57
2023/06/01 10:43:28;;;;;;;12.50;5.22;;;20.30;99.90;;;;;;5024959;28;20038;-57
2023/06/01 10:45:54;;;;;;;8.90;5.78;;;20.30;99.90;;;;;;5023421;28;20085;-57
2023/06/01 10:49:05;;;;;;;8.93;4.93;;;20.40;99.90;;;;;;5024999;28;20045;-57
2023/06/01 10:51:31;;;;;;;9.15;5.63;;;20.40;99.90;;;;;;5021953;28;20518;-59
2023/06/01 10:54:24;;;;;;;9.90;5.65;;;20.50;99.90;;;;;;5023630;28;20037;-58
2023/06/01 10:57:20;;;;;;;12.27;7.40;;;20.60;99.90;;;;;;5021166;28;20165;-58
2023/06/01 11:00:27;;;;;;;14.50;6.47;;;20.60;99.90;;;;;;5019841;28;20039;-58
2023/06/01 11:03:00;;;;;;;8.52;6.10;;;20.60;99.90;;;;;;5018919;28;20041;-58
2023/06/01 11:05:46;;;;;;;12.60;5.82;;;20.70;99.90;;;;;;5022119;28;20417;-58
2023/06/01 11:08:20;;;;;;;14.68;6.78;;;20.80;99.90;;;;;;5021809;28;20050;-58
2023/06/01 11:10:58;;;;;;;11.27;5.22;;;20.80;99.90;;;;;;5022295;28;20037;-58
2023/06/01 11:13:35;;;;;;;7.72;4.43;;;20.80;99.90;;;;;;5023753;28;21224;-57
2023/06/01 11:16:07;;;;;;;11.65;5.70;;;20.90;99.80;;;;;;5020629;28;20089;-58
2023/06/01 11:18:59;;;;;;;12.25;5.00;;;21.00;99.50;;;;;;5023504;28;20045;-57
2023/06/01 11:21:33;;;;;;;12.80;5.80;;;21.00;99.60;;;;;;5022933;28;20042;-58
2023/06/01 11:24:00;;;;;;;8.45;5.82;;;21.00;99.10;;;;;;5024297;28;20084;-58
2023/06/01 11:26:31;;;;;;;9.73;4.93;;;21.00;98.90;;;;;;5024109;28;20030;-58
2023/06/01 11:29:21;;;;;;;10.88;6.40;;;21.10;98.70;;;;;;5023924;28;20049;-58
2023/06/01 11:31:50;;;;;;;8.93;5.53;;;21.10;98.60;;;;;;5022829;28;20041;-58
2023/06/01 11:34:18;;;;;;;9.50;4.88;;;21.20;98.50;;;;;;5022463;28;20037;-58
2023/06/01 11:36:49;;;;;;;8.32;6.20;;;21.20;98.30;;;;;;5022620;28;20558;-59
2023/06/01 11:39:25;;;;;;;10.10;4.57;;;21.30;98.10;;;;;;5023843;28;20132;-58
2023/06/01 11:42:07;;;;;;;9.23;5.07;;;21.30;98.10;;;;;;5024299;28;20495;-58
2023/06/01 11:44:34;;;;;;;9.15;5.43;;;21.30;97.90;;;;;;5053439;28;20057;-58
2023/06/01 11:47:00;;;;;;;9.48;4.53;;;21.40;97.30;;;;;;5022310;28;20540;-58
2023/06/01 11:49:27;;;;;;;9.55;5.28;;;21.40;97.10;;;;;;5023522;28;20049;-58
2023/06/01 11:51:56;;;;;;;8.90;4.97;;;21.50;97.00;;;;;;5023060;28;20177;-58
2023/06/01 11:54:23;;;;;;;9.15;5.18;;;21.50;96.90;;;;;;5054083;28;20121;-59
2023/06/01 11:56:51;;;;;;;10.07;6.03;;;21.60;96.40;;;;;;5023110;28;20038;-58
2023/06/01 11:59:17;;;;;;;11.10;5.03;;;21.60;96.30;;;;;;5020983;28;20077;-58
2023/06/01 12:01:45;;;;;;;13.30;4.35;;;21.60;96.30;;;;;;5021590;28;20560;-60
2023/06/01 12:04:15;;;;;;;8.93;5.07;;;21.70;96.30;;;;;;5022686;28;20109;-58
2023/06/01 12:06:41;;;;;;;12.32;5.40;;;21.70;96.00;;;;;;5026730;28;20538;-58
2023/06/01 12:09:08;;;;;;;10.88;5.80;;;21.80;95.80;;;;;;5024453;28;20046;-58
2023/06/01 12:11:34;;;;;;;7.82;4.97;;;21.80;95.60;;;;;;5026072;28;20076;-58
2023/06/01 12:14:01;;;;;;;8.27;5.75;;;21.90;95.60;;;;;;5026502;28;20451;-58
2023/06/01 12:17:00;;;;;;;8.05;5.13;;;21.90;95.40;;;;;;5025103;28;20645;-59
2023/06/01 12:19:28;;;;;;;11.05;5.28;;;21.90;95.20;;;;;;5026455;28;20107;-58
2023/06/01 12:21:55;;;;;;;10.18;4.95;;;21.90;95.20;;;;;;5026734;28;20050;-58
2023/06/01 12:24:28;;;;;;;11.35;5.50;;;22.00;95.10;;;;;;5024128;28;20554;-59
2023/06/01 12:26:58;;;;;;;11.35;4.95;;;22.10;94.90;;;;;;5026832;28;20119;-58
2023/06/01 12:29:44;;;;;;;8.18;4.60;;;22.00;94.80;;;;;;5024522;28;20049;-58
2023/06/01 12:32:15;;;;;;;9.48;4.97;;;22.10;94.80;;;;;;5024372;28;20042;-58
2023/06/01 12:34:47;;;;;;;5.65;3.78;;;22.20;94.70;;;;;;5023666;28;20041;-58
2023/06/01 12:37:19;;;;;;;9.73;5.13;;;22.30;94.00;;;;;;5026126;28;20042;-58
2023/06/01 12:40:00;;;;;;;11.70;6.75;;;22.30;94.00;;;;;;5024486;28;20046;-58
2023/06/01 12:42:38;;;;;;;8.93;4.30;;;22.30;94.10;;;;;;5020807;28;20058;-59
2023/06/01 12:45:05;;;;;;;11.60;4.53;;;22.30;93.90;;;;;;5024795;28;20136;-58
2023/06/01 12:47:41;;;;;;;10.80;5.93;;;22.40;93.70;;;;;;5023096;28;20167;-59